createdAt,value
2018-08-18T00:00:15.567Z,78.95
2018-08-18T00:02:44.101Z,79.04
2018-08-18T00:05:13.521Z,78.79
2018-08-18T00:07:42.007Z,78.76
2018-08-18T00:10:11.673Z,79.16
2018-08-18T00:12:40.168Z,78.72
2018-08-18T00:15:09.773Z,79.38
2018-08-18T00:17:38.874Z,79.24
2018-08-18T00:20:10.045Z,79.57
2018-08-18T00:22:38.539Z,80.19
2018-08-18T00:25:07.362Z,80.15
2018-08-18T00:27:35.827Z,79.81
2018-08-18T00:30:10.235Z,79.78
2018-08-18T00:32:38.757Z,79.22
2018-08-18T00:35:08.144Z,79.96
2018-08-18T00:37:36.853Z,79.09
2018-08-18T00:40:06.830Z,82.11
2018-08-18T00:42:35.332Z,81.43
2018-08-18T00:45:03.970Z,82.01
2018-08-18T00:47:32.548Z,81.35
2018-08-18T00:50:01.065Z,81.35
2018-08-18T00:52:29.632Z,80.91
2018-08-18T00:54:58.116Z,81.42
2018-08-18T00:57:28.936Z,81.86
2018-08-18T00:59:57.553Z,82.39
2018-08-18T01:02:26.629Z,81.39
2018-08-18T01:05:02.122Z,81.12
2018-08-18T01:07:31.688Z,80.63
2018-08-18T01:10:00.577Z,79.68
2018-08-18T01:12:29.393Z,80.13
2018-08-18T01:14:58.384Z,80.27
2018-08-18T01:17:26.920Z,80.43
2018-08-18T01:19:57.065Z,80.04
2018-08-18T01:22:25.561Z,79.94
2018-08-18T01:24:54.474Z,80.65
2018-08-18T01:27:23.093Z,80.50
2018-08-18T01:30:06.823Z,80.68
2018-08-18T01:32:35.352Z,80.35
2018-08-18T01:35:03.881Z,80.68
2018-08-18T01:37:33.007Z,80.15
2018-08-18T01:40:01.747Z,80.62
2018-08-18T01:42:32.541Z,80.22
2018-08-18T01:45:01.048Z,80.38
2018-08-18T01:47:29.620Z,79.93
2018-08-18T01:49:59.621Z,80.48
2018-08-18T01:52:28.130Z,80.18
2018-08-18T01:54:56.585Z,80.38
2018-08-18T01:57:25.070Z,80.22
2018-08-18T01:59:53.520Z,80.79
2018-08-18T02:02:24.879Z,80.78
2018-08-18T02:04:53.697Z,80.70
2018-08-18T02:07:27.564Z,80.69
2018-08-18T02:09:56.532Z,80.96
2018-08-18T02:12:25.544Z,81.51
2018-08-18T02:14:54.410Z,81.32
2018-08-18T02:17:36.873Z,80.82
2018-08-18T02:20:08.831Z,80.84
2018-08-18T02:22:37.302Z,81.03
2018-08-18T02:25:06.398Z,80.64
2018-08-18T02:27:34.950Z,80.62
2018-08-18T02:30:23.713Z,81.37
2018-08-18T02:32:52.214Z,80.86
2018-08-18T02:35:22.170Z,80.59
2018-08-18T02:37:50.675Z,80.61
2018-08-18T02:40:19.315Z,80.81
2018-08-18T02:42:47.761Z,80.94
2018-08-18T02:45:16.856Z,81.13
2018-08-18T02:47:45.352Z,81.87
2018-08-18T02:50:14.557Z,82.01
2018-08-18T02:52:43.050Z,81.97
2018-08-18T02:55:12.166Z,81.37
2018-08-18T02:57:44.669Z,81.52
2018-08-18T03:00:19.663Z,81.91
2018-08-18T03:02:48.362Z,81.18
2018-08-18T03:05:16.893Z,81.12
2018-08-18T03:07:49.240Z,82.03
2018-08-18T03:10:24.569Z,82.40
2018-08-18T03:12:56.393Z,81.94
2018-08-18T03:16:04.962Z,82.16
2018-08-18T03:18:55.200Z,82.52
2018-08-18T03:21:29.960Z,82.85
2018-08-18T03:24:09.549Z,83.55
2018-08-18T03:26:45.423Z,82.87
2018-08-18T03:29:14.892Z,82.37
2018-08-18T03:31:43.766Z,82.06
2018-08-18T03:34:12.801Z,81.96
2018-08-18T03:36:43.977Z,81.53
2018-08-18T03:39:20.197Z,81.76
2018-08-18T03:41:48.971Z,81.39
2018-08-18T03:44:17.489Z,81.24
2018-08-18T03:46:46.118Z,81.45
2018-08-18T03:49:14.651Z,81.81
2018-08-18T03:51:46.192Z,81.69
2018-08-18T03:54:14.827Z,82.06
2018-08-18T03:56:43.535Z,82.29
2018-08-18T03:59:12.059Z,82.10
2018-08-18T04:01:52.429Z,81.80
2018-08-18T04:04:21.980Z,82.29
2018-08-18T04:06:51.686Z,81.88
2018-08-18T04:09:21.346Z,81.58
2018-08-18T04:11:49.949Z,82.12
2018-08-18T04:14:21.529Z,81.78
2018-08-18T04:16:51.125Z,81.89
2018-08-18T04:19:20.668Z,82.04
2018-08-18T04:21:50.626Z,82.18
2018-08-18T04:24:19.101Z,82.51
2018-08-18T04:26:48.221Z,82.60
2018-08-18T04:29:16.750Z,83.32
2018-08-18T04:31:45.197Z,83.84
2018-08-18T04:34:13.689Z,83.75
2018-08-18T04:36:42.165Z,83.76
2018-08-18T04:39:12.784Z,83.55
2018-08-18T04:41:41.906Z,83.67
2018-08-18T04:44:10.425Z,83.67
2018-08-18T04:46:38.931Z,82.70
2018-08-18T04:49:07.454Z,82.33
2018-08-18T04:51:36.092Z,82.60
2018-08-18T04:54:04.940Z,82.78
2018-08-18T04:56:33.541Z,83.52
2018-08-18T04:59:02.062Z,82.72
2018-08-18T05:01:30.557Z,83.12
2018-08-18T05:04:03.145Z,82.63
2018-08-18T05:06:32.510Z,82.95
2018-08-18T05:09:02.332Z,82.98
2018-08-18T05:11:31.005Z,83.18
2018-08-18T05:13:59.577Z,82.38
2018-08-18T05:16:28.225Z,82.43
2018-08-18T05:18:56.746Z,82.82
2018-08-18T05:21:25.498Z,82.71
2018-08-18T05:23:54.244Z,81.52
2018-08-18T05:26:22.888Z,81.25
2018-08-18T05:28:51.397Z,81.47
2018-08-18T05:31:21.223Z,80.44
2018-08-18T05:33:49.984Z,79.35
2018-08-18T05:36:18.530Z,78.55
2018-08-18T05:38:47.007Z,77.78
2018-08-18T05:41:15.509Z,78.12
2018-08-18T05:43:44.029Z,76.62
2018-08-18T05:46:12.519Z,76.11
2018-08-18T05:48:41.012Z,75.87
2018-08-18T05:51:09.510Z,75.74
2018-08-18T05:53:38.018Z,72.99
2018-08-18T05:56:06.533Z,66.06
2018-08-18T05:58:50.159Z,57.13
2018-08-18T06:01:27.482Z,49.38
2018-08-18T06:04:04.132Z,47.16
2018-08-18T06:06:32.829Z,44.54
2018-08-18T06:09:01.353Z,46.98
2018-08-18T06:11:29.875Z,44.96
2018-08-18T06:13:58.425Z,44.49
2018-08-18T06:16:26.910Z,44.75
2018-08-18T06:18:55.470Z,46.10
2018-08-18T06:21:24.029Z,46.31
2018-08-18T06:23:52.577Z,46.19
2018-08-18T06:26:21.044Z,46.78
2018-08-18T06:28:49.601Z,44.45
2018-08-18T06:31:18.080Z,43.91
2018-08-18T06:33:46.721Z,42.39
2018-08-18T06:36:15.274Z,41.80
2018-08-18T06:38:43.761Z,44.10
2018-08-18T06:41:12.407Z,40.83
2018-08-18T06:43:40.810Z,39.48
2018-08-18T06:46:09.382Z,37.91
2018-08-18T06:48:38.521Z,39.92
2018-08-18T06:51:07.591Z,45.24
2018-08-18T06:53:41.336Z,53.23
2018-08-18T06:56:10.079Z,57.07
2018-08-18T06:58:38.609Z,59.81
2018-08-18T07:01:07.663Z,61.65
2018-08-18T07:03:38.113Z,61.92
2018-08-18T07:06:07.251Z,62.18
2018-08-18T07:08:41.076Z,63.45
2018-08-18T07:11:10.218Z,63.68
2018-08-18T07:13:38.829Z,64.44
2018-08-18T07:16:07.604Z,63.45
2018-08-18T07:18:36.179Z,63.07
2018-08-18T07:21:04.748Z,62.04
2018-08-18T07:23:33.248Z,63.00
2018-08-18T07:26:02.596Z,63.97
2018-08-18T07:28:31.097Z,62.43
2018-08-18T07:30:59.680Z,62.70
2018-08-18T07:33:28.166Z,62.02
2018-08-18T07:35:56.706Z,61.62
2018-08-18T07:38:25.207Z,61.56
2018-08-18T07:40:54.667Z,61.27
2018-08-18T07:43:25.269Z,60.07
2018-08-18T07:45:54.922Z,60.59
2018-08-18T07:48:23.414Z,60.76
2018-08-18T07:50:51.961Z,61.07
2018-08-18T07:53:20.542Z,59.10
2018-08-18T07:55:49.067Z,60.83
2018-08-18T07:58:19.541Z,59.80
2018-08-18T08:00:48.238Z,59.03
2018-08-18T08:03:17.505Z,58.17
2018-08-18T08:05:46.068Z,58.28
2018-08-18T08:08:14.591Z,57.62
2018-08-18T08:10:43.210Z,58.92
2018-08-18T08:13:12.951Z,57.57
2018-08-18T08:15:41.700Z,54.55
2018-08-18T08:18:12.276Z,56.64
2018-08-18T08:20:40.777Z,55.90
2018-08-18T08:23:09.289Z,55.95
2018-08-18T08:25:37.882Z,54.35
2018-08-18T08:28:06.445Z,54.12
2018-08-18T08:30:34.934Z,54.32
2018-08-18T08:33:03.476Z,52.06
2018-08-18T08:35:32.050Z,51.71
2018-08-18T08:38:00.647Z,51.80
2018-08-18T08:40:29.619Z,51.74
2018-08-18T08:42:58.201Z,51.96
2018-08-18T08:45:26.721Z,53.44
2018-08-18T08:47:56.072Z,52.87
2018-08-18T08:50:25.164Z,52.69
2018-08-18T08:52:56.474Z,51.53
2018-08-18T08:55:26.249Z,52.64
2018-08-18T08:57:54.766Z,52.52
2018-08-18T09:00:23.389Z,52.08
2018-08-18T09:02:51.918Z,52.23
2018-08-18T09:05:20.804Z,52.32
2018-08-18T09:07:49.328Z,51.62
2018-08-18T09:10:18.322Z,50.62
2018-08-18T09:12:46.862Z,51.02
2018-08-18T09:15:16.505Z,51.24
2018-08-18T09:17:45.102Z,51.04
2018-08-18T09:20:16.279Z,49.89
2018-08-18T09:22:56.052Z,50.64
2018-08-18T09:25:26.081Z,49.21
2018-08-18T09:27:55.793Z,50.11
2018-08-18T09:30:25.767Z,50.73
2018-08-18T09:32:54.400Z,50.23
2018-08-18T09:35:23.061Z,49.54
2018-08-18T09:37:56.809Z,50.56
2018-08-18T09:40:25.375Z,49.26
2018-08-18T09:42:53.833Z,49.11
2018-08-18T09:45:22.413Z,48.95
2018-08-18T09:47:50.901Z,49.36
2018-08-18T09:50:19.409Z,49.08
2018-08-18T09:52:47.960Z,49.91
2018-08-18T09:55:16.501Z,48.58
2018-08-18T09:57:44.994Z,49.49
2018-08-18T10:00:14.940Z,49.65
2018-08-18T10:02:43.635Z,49.34
2018-08-18T10:05:12.246Z,49.03
2018-08-18T10:07:40.766Z,50.13
2018-08-18T10:10:11.194Z,50.37
2018-08-18T10:12:39.852Z,49.51
2018-08-18T10:15:08.525Z,49.57
2018-08-18T10:17:37.105Z,48.84
2018-08-18T10:20:06.510Z,49.48
2018-08-18T10:22:35.009Z,48.84
2018-08-18T10:25:04.061Z,48.47
2018-08-18T10:27:32.576Z,48.68
2018-08-18T10:30:01.067Z,47.40
2018-08-18T10:32:29.610Z,48.57
2018-08-18T10:34:58.089Z,48.55
2018-08-18T10:37:26.585Z,48.13
2018-08-18T10:40:02.269Z,49.16
2018-08-18T10:42:32.109Z,47.26
2018-08-18T10:45:01.164Z,47.09
2018-08-18T10:47:30.073Z,48.10
2018-08-18T10:50:09.707Z,47.82
2018-08-18T10:52:49.352Z,48.90
2018-08-18T10:55:18.590Z,48.57
2018-08-18T10:58:08.537Z,48.06
2018-08-18T11:00:37.540Z,48.29
2018-08-18T11:03:07.156Z,47.92
2018-08-18T11:05:35.689Z,47.49
2018-08-18T11:08:06.157Z,48.21
2018-08-18T11:10:36.798Z,48.29
2018-08-18T11:13:05.402Z,47.04
2018-08-18T11:15:34.486Z,46.58
2018-08-18T11:18:03.314Z,47.55
2018-08-18T11:20:33.900Z,46.81
2018-08-18T11:23:17.784Z,47.50
2018-08-18T11:25:54.327Z,47.59
2018-08-18T11:28:23.826Z,47.07
2018-08-18T11:30:53.492Z,46.43
2018-08-18T11:33:36.109Z,46.66
2018-08-18T11:36:06.212Z,47.81
2018-08-18T11:38:35.299Z,47.45
2018-08-18T11:41:04.305Z,46.50
2018-08-18T11:43:41.061Z,47.71
2018-08-18T11:46:10.169Z,47.62
2018-08-18T11:48:39.125Z,48.24
2018-08-18T11:51:08.375Z,47.36
2018-08-18T11:53:47.110Z,48.19
2018-08-18T11:56:16.738Z,46.43
2018-08-18T11:58:50.489Z,46.57
2018-08-18T12:01:23.486Z,45.42
2018-08-18T12:03:52.702Z,45.84
2018-08-18T12:06:21.862Z,45.72
2018-08-18T12:08:50.879Z,47.02
2018-08-18T12:11:20.153Z,46.71
2018-08-18T12:13:49.308Z,46.50
2018-08-18T12:16:19.471Z,44.22
2018-08-18T12:18:49.221Z,45.90
2018-08-18T12:21:18.376Z,45.28
2018-08-18T12:23:48.820Z,46.46
2018-08-18T12:26:21.768Z,45.73
2018-08-18T12:28:53.396Z,45.33
2018-08-18T12:31:28.834Z,45.73
2018-08-18T12:33:57.642Z,45.72
2018-08-18T12:36:26.803Z,45.92
2018-08-18T12:38:57.905Z,46.43
2018-08-18T12:41:26.982Z,47.23
2018-08-18T12:43:57.883Z,47.09
2018-08-18T12:46:35.951Z,46.06
2018-08-18T12:49:06.499Z,46.43
2018-08-18T12:51:35.434Z,48.33
2018-08-18T12:54:04.603Z,48.05
2018-08-18T12:56:34.184Z,50.37
2018-08-18T12:59:03.201Z,49.51
2018-08-18T13:01:45.910Z,48.62
2018-08-18T13:04:17.287Z,48.62
2018-08-18T13:06:48.880Z,48.35
2018-08-18T13:09:19.553Z,47.25
2018-08-18T13:11:49.742Z,48.03
2018-08-18T13:14:20.997Z,47.96
2018-08-18T13:16:50.465Z,47.00
2018-08-18T13:19:21.547Z,46.60
2018-08-18T13:21:50.701Z,47.15
2018-08-18T13:24:19.702Z,47.58
2018-08-18T13:26:48.738Z,47.50
2018-08-18T13:29:17.912Z,46.90
2018-08-18T13:31:46.538Z,47.67
2018-08-18T13:34:16.421Z,46.45
2018-08-18T13:36:45.824Z,46.70
2018-08-18T13:39:15.701Z,48.22
2018-08-18T13:41:45.041Z,47.62
2018-08-18T13:44:18.437Z,48.84
2018-08-18T13:46:49.556Z,47.56
2018-08-18T13:49:21.703Z,48.22
2018-08-18T13:51:50.318Z,49.88
2018-08-18T13:54:18.900Z,50.95
2018-08-18T13:56:47.498Z,51.25
2018-08-18T13:59:27.202Z,50.94
2018-08-18T14:01:55.698Z,50.42
2018-08-18T14:04:29.434Z,50.18
2018-08-18T14:06:57.824Z,49.32
2018-08-18T14:09:26.345Z,49.14
2018-08-18T14:12:00.673Z,48.98
2018-08-18T14:14:29.174Z,49.12
2018-08-18T14:16:57.684Z,51.59
2018-08-18T14:19:26.141Z,51.54
2018-08-18T14:21:59.754Z,50.79
2018-08-18T14:24:35.034Z,52.29
2018-08-18T14:27:04.569Z,52.40
2018-08-18T14:29:33.977Z,52.83
2018-08-18T14:32:03.053Z,53.01
2018-08-18T14:34:31.553Z,52.55
2018-08-18T14:37:05.331Z,51.46
2018-08-18T14:39:37.789Z,52.25
2018-08-18T14:42:06.905Z,51.02
2018-08-18T14:44:35.859Z,51.61
2018-08-18T14:47:04.498Z,52.28
2018-08-18T14:49:33.133Z,51.75
2018-08-18T14:52:01.684Z,53.21
2018-08-18T14:54:31.264Z,51.92
2018-08-18T14:57:01.537Z,53.92
2018-08-18T14:59:34.199Z,53.09
2018-08-18T15:02:04.433Z,54.44
2018-08-18T15:04:33.485Z,53.21
2018-08-18T15:07:01.957Z,52.82
2018-08-18T15:09:41.793Z,52.64
2018-08-18T15:12:10.243Z,53.16
2018-08-18T15:14:38.755Z,52.58
2018-08-18T15:17:07.233Z,53.50
2018-08-18T15:19:35.722Z,53.03
2018-08-18T15:22:07.001Z,53.36
2018-08-18T15:24:35.569Z,54.23
2018-08-18T15:27:04.146Z,54.19
2018-08-18T15:29:32.751Z,53.82
2018-08-18T15:32:01.333Z,54.78
2018-08-18T15:34:29.935Z,54.80
2018-08-18T15:36:58.463Z,54.18
2018-08-18T15:39:28.562Z,54.08
2018-08-18T15:41:58.810Z,54.75
2018-08-18T15:44:27.293Z,55.16
2018-08-18T15:46:55.793Z,54.44
2018-08-18T15:49:24.308Z,54.72
2018-08-18T15:51:52.869Z,55.32
2018-08-18T15:54:23.796Z,54.32
2018-08-18T15:56:52.289Z,54.85
2018-08-18T15:59:20.797Z,55.13
2018-08-18T16:01:49.281Z,53.84
2018-08-18T16:04:17.794Z,53.80
2018-08-18T16:06:46.335Z,53.64
2018-08-18T16:09:14.838Z,52.56
2018-08-18T16:11:43.364Z,53.62
2018-08-18T16:14:11.828Z,54.19
2018-08-18T16:16:55.660Z,54.13
2018-08-18T16:19:24.593Z,54.75
2018-08-18T16:21:53.119Z,55.26
2018-08-18T16:24:38.909Z,56.10
2018-08-18T16:27:07.801Z,55.95
2018-08-18T16:29:36.778Z,55.49
2018-08-18T16:32:24.962Z,55.12
2018-08-18T16:35:00.343Z,55.95
2018-08-18T16:37:29.058Z,55.98
2018-08-18T16:42:25.201Z,55.77
2018-08-18T16:44:53.657Z,55.68
2018-08-18T16:47:22.172Z,55.15
2018-08-18T16:49:50.710Z,55.75
2018-08-18T16:52:19.233Z,56.38
2018-08-18T16:54:47.731Z,55.71
2018-08-18T16:57:16.249Z,56.58
2018-08-18T16:59:44.781Z,57.29
2018-08-18T17:02:28.561Z,58.07
2018-08-18T17:04:57.082Z,57.49
2018-08-18T17:07:26.670Z,57.58
2018-08-18T17:09:55.398Z,57.92
2018-08-18T17:12:27.405Z,58.55
2018-08-18T17:14:55.918Z,59.13
2018-08-18T17:17:25.170Z,59.02
2018-08-18T17:19:53.714Z,59.02
2018-08-18T17:22:22.325Z,59.50
2018-08-18T17:24:50.867Z,59.17
2018-08-18T17:27:19.425Z,59.13
2018-08-18T17:29:49.713Z,59.41
2018-08-18T17:32:18.202Z,58.91
2018-08-18T17:34:46.724Z,58.74
2018-08-18T17:37:15.232Z,58.54
2018-08-18T17:39:43.759Z,59.48
2018-08-18T17:42:12.445Z,59.12
2018-08-18T17:44:41.196Z,59.59
2018-08-18T17:47:11.017Z,60.03
2018-08-18T17:49:45.959Z,59.98
2018-08-18T17:52:14.519Z,60.50
2018-08-18T17:54:44.464Z,60.77
2018-08-18T17:57:13.008Z,60.25
2018-08-18T17:59:41.628Z,60.64
2018-08-18T18:02:12.545Z,61.03
2018-08-18T18:04:41.034Z,61.57
2018-08-18T18:07:10.575Z,62.01
2018-08-18T18:09:39.156Z,61.74
2018-08-18T18:12:30.355Z,61.46
2018-08-18T18:14:58.945Z,62.00
2018-08-18T18:17:27.971Z,62.38
2018-08-18T18:19:59.504Z,61.75
2018-08-18T18:22:40.338Z,61.50
2018-08-18T18:25:08.928Z,63.02
2018-08-18T18:27:37.426Z,62.45
2018-08-18T18:30:06.036Z,63.19
2018-08-18T18:32:34.533Z,62.85
2018-08-18T18:35:03.268Z,62.92
2018-08-18T18:37:31.773Z,63.78
2018-08-18T18:40:02.403Z,63.47
2018-08-18T18:42:30.950Z,64.02
2018-08-18T18:44:59.893Z,63.96
2018-08-18T18:47:29.144Z,64.84
2018-08-18T18:49:57.642Z,64.62
2018-08-18T18:52:26.310Z,64.67
2018-08-18T18:54:57.512Z,64.62
2018-08-18T18:57:26.152Z,64.97
2018-08-18T19:00:01.058Z,65.40
2018-08-18T19:02:39.554Z,65.75
2018-08-18T19:05:16.670Z,66.78
2018-08-18T19:07:45.457Z,66.99
2018-08-18T19:10:13.962Z,68.10
2018-08-18T19:12:42.509Z,68.60
2018-08-18T19:15:11.039Z,68.87
2018-08-18T19:17:39.564Z,69.00
2018-08-18T19:20:40.722Z,69.59
2018-08-18T19:23:14.565Z,69.75
2018-08-18T19:25:44.113Z,69.17
2018-08-18T19:28:14.076Z,69.52
2018-08-18T19:30:42.669Z,69.47
2018-08-18T19:33:12.295Z,69.36
2018-08-18T19:35:42.236Z,69.50
2018-08-18T19:38:10.959Z,69.53
2018-08-18T19:40:41.002Z,70.51
2018-08-18T19:43:14.711Z,69.74
2018-08-18T19:45:43.408Z,69.68
2018-08-18T19:48:13.177Z,69.32
2018-08-18T19:50:51.256Z,69.39
2018-08-18T19:53:22.657Z,69.15
2018-08-18T19:55:51.597Z,70.49
2018-08-18T19:58:20.211Z,70.50
2018-08-18T20:00:48.799Z,71.06
2018-08-18T20:03:18.272Z,70.57
2018-08-18T20:05:47.081Z,71.65
2018-08-18T20:08:16.685Z,71.60
2018-08-18T20:10:50.481Z,71.30
2018-08-18T20:13:19.820Z,71.50
2018-08-18T20:15:49.581Z,70.63
2018-08-18T20:18:18.688Z,70.95
2018-08-18T20:20:47.410Z,70.88
2018-08-18T20:23:17.138Z,70.42
2018-08-18T20:25:46.073Z,70.82
2018-08-18T20:28:14.857Z,70.45
2018-08-18T20:30:43.604Z,70.36
2018-08-18T20:33:12.129Z,70.08
2018-08-18T20:35:40.629Z,70.31
2018-08-18T20:38:09.267Z,70.19
2018-08-18T20:40:38.060Z,70.02
2018-08-18T20:43:06.528Z,70.23
2018-08-18T20:45:50.449Z,69.69
2018-08-18T20:48:21.235Z,69.39
2018-08-18T20:50:50.134Z,69.14
2018-08-18T20:53:19.337Z,69.49
2018-08-18T20:55:57.282Z,69.72
2018-08-18T20:58:26.276Z,68.91
2018-08-18T21:00:54.890Z,69.41
2018-08-18T21:03:34.631Z,69.34
2018-08-18T21:06:03.525Z,69.79
2018-08-18T21:08:32.046Z,69.27
2018-08-18T21:11:00.692Z,69.73
2018-08-18T21:13:29.389Z,69.27
2018-08-18T21:15:58.173Z,68.78
2018-08-18T21:18:26.819Z,68.91
2018-08-18T21:20:55.313Z,69.62
2018-08-18T21:23:25.026Z,70.03
2018-08-18T21:25:54.160Z,70.85
2018-08-18T21:28:24.942Z,71.62
2018-08-18T21:30:53.496Z,72.18
2018-08-18T21:33:24.997Z,73.37
2018-08-18T21:35:54.081Z,73.45
2018-08-18T21:38:22.565Z,73.30
2018-08-18T21:40:51.094Z,73.87
2018-08-18T21:43:30.781Z,74.22
2018-08-18T21:45:59.304Z,74.52
2018-08-18T21:48:39.237Z,74.34
2018-08-18T21:51:07.799Z,74.18
2018-08-18T21:53:36.297Z,74.34
2018-08-18T21:56:04.813Z,75.40
2018-08-18T21:58:33.270Z,74.79
2018-08-18T22:01:08.097Z,75.15
2018-08-18T22:03:36.657Z,75.22
2018-08-18T22:06:05.418Z,75.67
2018-08-18T22:08:33.896Z,76.22
2018-08-18T22:11:02.425Z,76.27
2018-08-18T22:13:40.830Z,76.09
2018-08-18T22:16:09.854Z,76.95
2018-08-18T22:18:38.445Z,77.26
2018-08-18T22:21:12.401Z,77.15
2018-08-18T22:23:40.893Z,76.88
2018-08-18T22:26:13.524Z,76.71
2018-08-18T22:28:42.009Z,77.13
2018-08-18T22:31:10.491Z,78.53
2018-08-18T22:33:41.398Z,78.16
2018-08-18T22:36:09.890Z,78.20
2018-08-18T22:38:38.675Z,78.27
2018-08-18T22:41:07.442Z,78.05
2018-08-18T22:43:36.462Z,78.21
2018-08-18T22:46:05.005Z,77.47
2018-08-18T22:48:33.561Z,78.40
2018-08-18T22:51:02.045Z,77.83
2018-08-18T22:53:30.550Z,76.91
2018-08-18T22:55:59.299Z,75.91
2018-08-18T22:58:27.782Z,76.14
2018-08-18T23:00:56.703Z,76.38
2018-08-18T23:03:25.275Z,76.40
2018-08-18T23:05:53.838Z,76.74
2018-08-18T23:08:22.418Z,77.18
2018-08-18T23:10:50.946Z,76.90
2018-08-18T23:13:19.457Z,76.77
2018-08-18T23:15:48.020Z,76.25
2018-08-18T23:18:16.574Z,75.62
2018-08-18T23:20:45.082Z,75.01
2018-08-18T23:23:13.568Z,74.68
2018-08-18T23:25:42.057Z,75.25
2018-08-18T23:28:10.576Z,74.87
2018-08-18T23:30:40.049Z,74.25
2018-08-18T23:33:10.479Z,74.36
2018-08-18T23:35:38.963Z,74.41
2018-08-18T23:38:07.486Z,74.48
2018-08-18T23:40:35.990Z,74.54
2018-08-18T23:43:04.461Z,73.91
2018-08-18T23:45:38.929Z,73.97
2018-08-18T23:48:09.694Z,74.62
2018-08-18T23:50:39.006Z,74.61
2018-08-18T23:53:10.700Z,73.95
2018-08-18T23:55:44.921Z,73.83
2018-08-18T23:58:13.823Z,73.40
